Time;durP1;ratioP1;P1;durP2;ratioP2;P2;SDS_P1;SDS_P2;PMS_P1;PMS_P2;Temp;Humidity;BMP_temperature;BMP_pressure;BME280_temperature;BME280_humidity;BME280_pressure;Samples;Min_cycle;Max_cycle;Signal;HPM_P1;HPM_P2
2024/01/03 00:00:35;;;;;;;130.75;55.83;;;16.50;71.20;;;;;;4874358;28;90235;-69
2024/01/03 00:03:00;;;;;;;126.90;55.90;;;16.40;71.00;;;;;;4877933;28;89728;-70
2024/01/03 00:05:39;;;;;;;126.68;55.60;;;16.50;71.10;;;;;;4870174;28;90713;-70
2024/01/03 00:08:10;;;;;;;129.20;56.00;;;16.40;71.10;;;;;;4872818;28;90201;-70
2024/01/03 00:10:55;;;;;;;128.95;56.03;;;16.40;71.10;;;;;;4873755;28;89065;-71
2024/01/03 00:13:32;;;;;;;128.18;55.58;;;16.40;71.50;;;;;;4875896;28;89880;-70
2024/01/03 00:16:04;;;;;;;127.75;55.67;;;16.40;71.10;;;;;;4873693;28;91888;-68
2024/01/03 00:18:36;;;;;;;;;;;16.40;71.10;;;;;;4873716;28;91277;-69
2024/01/03 00:21:03;;;;;;;128.43;55.60;;;16.40;71.10;;;;;;4869915;28;91160;-70
2024/01/03 00:23:41;;;;;;;127.80;55.55;;;16.40;71.10;;;;;;4873417;28;91831;-68
2024/01/03 00:26:09;;;;;;;126.10;55.42;;;16.30;71.10;;;;;;4873475;28;89845;-69
2024/01/03 00:28:34;;;;;;;128.00;55.42;;;16.30;71.10;;;;;;4874807;28;90064;-69
2024/01/03 00:31:01;;;;;;;126.28;55.38;;;16.30;71.10;;;;;;4871867;28;90397;-70
2024/01/03 00:33:27;;;;;;;126.97;55.38;;;16.40;71.10;;;;;;4873770;28;90484;-70
2024/01/03 00:35:53;;;;;;;128.98;55.40;;;16.30;71.00;;;;;;4871180;28;89199;-70
2024/01/03 00:38:19;;;;;;;126.32;55.50;;;16.30;71.10;;;;;;4873168;28;89989;-68
2024/01/03 00:40:51;;;;;;;126.07;55.45;;;16.30;71.00;;;;;;4890458;28;89908;-71
2024/01/03 00:43:17;;;;;;;124.05;55.08;;;16.30;71.10;;;;;;4874161;28;91659;-70
2024/01/03 00:45:43;;;;;;;128.52;55.38;;;16.30;71.00;;;;;;4873277;28;89551;-70
2024/01/03 00:48:09;;;;;;;125.65;55.50;;;16.30;71.00;;;;;;4890440;28;90889;-69
2024/01/03 00:50:35;;;;;;;124.47;55.28;;;16.30;71.20;;;;;;4870591;28;89992;-69
2024/01/03 00:53:00;;;;;;;125.80;54.75;;;16.30;71.20;;;;;;4874044;28;90416;-69
2024/01/03 00:55:26;;;;;;;126.25;55.30;;;16.30;71.10;;;;;;4872596;28;90171;-70
2024/01/03 00:57:52;;;;;;;125.75;55.55;;;16.20;71.20;;;;;;4874189;28;90394;-68
2024/01/03 01:00:18;;;;;;;125.15;55.15;;;16.20;71.20;;;;;;4871245;28;88839;-69
2024/01/03 01:02:47;;;;;;;125.20;55.25;;;16.20;71.20;;;;;;4870280;28;90328;-70
2024/01/03 01:05:13;;;;;;;126.72;54.85;;;16.20;71.30;;;;;;4870806;28;90058;-70
2024/01/03 01:07:38;;;;;;;122.88;54.72;;;16.20;71.40;;;;;;4878426;28;91232;-70
2024/01/03 01:10:05;;;;;;;124.32;55.30;;;16.20;71.40;;;;;;4876399;28;91278;-71
2024/01/03 01:12:30;;;;;;;125.25;55.05;;;16.20;71.40;;;;;;4894810;28;90667;-70
2024/01/03 01:14:58;;;;;;;125.22;55.05;;;16.20;71.30;;;;;;4879189;28;90591;-71
2024/01/03 01:17:25;;;;;;;125.82;55.45;;;16.20;71.40;;;;;;4879886;28;89815;-70
2024/01/03 01:19:51;;;;;;;125.88;55.55;;;16.20;71.40;;;;;;4875347;28;90119;-70
2024/01/03 01:22:17;;;;;;;129.02;55.45;;;16.20;71.40;;;;;;4874379;28;92110;-69
2024/01/03 01:24:42;;;;;;;125.53;55.53;;;16.20;71.40;;;;;;4879771;28;89120;-70
2024/01/03 01:27:08;;;;;;;126.20;55.40;;;16.20;71.40;;;;;;4874789;28;90563;-69
2024/01/03 01:29:34;;;;;;;124.10;55.15;;;16.20;71.50;;;;;;4876241;28;90253;-70
2024/01/03 01:32:00;;;;;;;124.22;55.15;;;16.20;71.50;;;;;;4874001;28;91039;-69
2024/01/03 01:34:26;;;;;;;126.50;55.53;;;16.20;71.50;;;;;;4871624;28;91168;-70
2024/01/03 01:36:51;;;;;;;127.40;55.33;;;16.20;71.50;;;;;;4878495;28;90214;-69
2024/01/03 01:39:17;;;;;;;124.88;55.25;;;16.20;71.60;;;;;;4878295;28;89572;-68
2024/01/03 01:41:43;;;;;;;124.47;55.15;;;16.20;71.50;;;;;;4870472;28;90179;-70
2024/01/03 01:44:09;;;;;;;124.80;55.38;;;16.20;71.50;;;;;;4876778;28;90950;-70
2024/01/03 01:46:36;;;;;;;124.97;55.08;;;16.20;71.60;;;;;;4876353;28;90521;-68
2024/01/03 01:49:04;;;;;;;124.93;55.05;;;16.20;71.60;;;;;;4879152;28;89960;-70
2024/01/03 01:51:31;;;;;;;124.07;55.17;;;16.20;71.60;;;;;;4870109;28;90453;-69
2024/01/03 01:53:57;;;;;;;126.68;55.38;;;16.10;71.60;;;;;;4871241;28;89967;-71
2024/01/03 01:56:24;;;;;;;124.32;54.80;;;16.10;71.70;;;;;;4872157;28;90742;-72
2024/01/03 01:58:50;;;;;;;126.68;55.60;;;16.20;71.70;;;;;;4878454;28;89859;-70
2024/01/03 02:01:19;;;;;;;125.43;55.40;;;16.20;71.70;;;;;;4869691;28;90008;-68
2024/01/03 02:03:47;;;;;;;125.10;54.97;;;16.20;71.60;;;;;;4870669;28;90386;-69
2024/01/03 02:06:13;;;;;;;123.60;54.85;;;16.10;71.60;;;;;;4876093;28;90422;-71
2024/01/03 02:08:38;;;;;;;123.03;55.05;;;16.10;71.60;;;;;;4875821;28;90022;-70
2024/01/03 02:11:04;;;;;;;124.80;55.05;;;16.10;71.60;;;;;;4878956;28;90643;-70
2024/01/03 02:13:30;;;;;;;125.75;55.13;;;16.10;71.60;;;;;;4894720;28;89449;-71
2024/01/03 02:15:56;;;;;;;124.88;55.00;;;16.10;71.60;;;;;;4877877;28;90458;-70
2024/01/03 02:18:23;;;;;;;125.90;54.90;;;16.10;71.60;;;;;;4871239;28;91104;-70
2024/01/03 02:20:51;;;;;;;124.45;55.30;;;16.10;71.60;;;;;;4875891;28;93343;-71
2024/01/03 02:23:16;;;;;;;126.03;55.22;;;16.10;71.70;;;;;;4879388;28;89524;-70
2024/01/03 02:25:42;;;;;;;128.95;55.22;;;16.10;71.70;;;;;;4880950;28;90737;-70
2024/01/03 02:28:10;;;;;;;124.80;54.95;;;16.10;71.60;;;;;;4881922;28;89576;-70
2024/01/03 02:30:36;;;;;;;124.15;54.95;;;16.10;71.70;;;;;;4873578;28;93194;-70
2024/01/03 02:33:02;;;;;;;124.28;55.10;;;16.10;71.80;;;;;;4873543;28;90537;-67
2024/01/03 02:35:27;;;;;;;123.60;54.85;;;16.10;71.80;;;;;;4876151;28;91736;-68
2024/01/03 02:37:53;;;;;;;123.50;54.95;;;16.00;71.90;;;;;;4878212;28;90458;-70
2024/01/03 02:40:19;;;;;;;125.35;55.38;;;16.10;71.90;;;;;;4881336;28;89863;-70
2024/01/03 02:42:44;;;;;;;124.18;55.42;;;16.10;71.90;;;;;;4878301;28;90165;-70
2024/01/03 02:45:10;;;;;;;128.02;55.10;;;16.10;72.00;;;;;;4880698;28;91456;-69
2024/01/03 02:47:36;;;;;;;124.57;55.05;;;16.10;71.90;;;;;;4876563;28;90000;-70
2024/01/03 02:50:01;;;;;;;125.32;55.22;;;16.10;72.00;;;;;;4877006;28;89544;-69
2024/01/03 02:52:27;;;;;;;125.55;55.20;;;16.00;71.90;;;;;;4879232;28;90284;-69
2024/01/03 02:54:53;;;;;;;125.50;55.17;;;16.00;72.00;;;;;;4878473;28;89693;-69
2024/01/03 02:57:19;;;;;;;123.90;54.53;;;16.10;72.90;;;;;;4878093;28;90216;-70
2024/01/03 02:59:44;;;;;;;124.43;54.83;;;16.00;72.10;;;;;;4877764;28;90228;-70
2024/01/03 03:02:10;;;;;;;125.25;55.22;;;16.10;72.20;;;;;;4876582;28;90296;-68
2024/01/03 03:04:36;;;;;;;124.97;55.03;;;16.10;72.20;;;;;;4879687;28;90294;-70
2024/01/03 03:07:01;;;;;;;125.20;54.72;;;16.00;72.30;;;;;;4877001;28;90215;-67
2024/01/03 03:09:27;;;;;;;124.47;55.00;;;16.00;72.40;;;;;;4879196;28;90430;-68
2024/01/03 03:11:52;;;;;;;123.53;55.03;;;16.00;72.30;;;;;;4875743;28;90733;-68
2024/01/03 03:14:18;;;;;;;124.47;55.25;;;16.00;72.30;;;;;;4880399;28;89985;-70
2024/01/03 03:16:44;;;;;;;124.03;54.92;;;16.00;72.40;;;;;;4878572;28;92429;-69
2024/01/03 03:19:09;;;;;;;123.38;54.60;;;16.00;72.40;;;;;;4880607;28;91102;-70
2024/01/03 03:21:35;;;;;;;126.75;55.05;;;16.00;72.40;;;;;;4876442;28;92433;-70
2024/01/03 03:24:01;;;;;;;125.95;55.25;;;16.00;72.40;;;;;;4878096;28;91301;-70
2024/01/03 03:26:27;;;;;;;124.88;55.25;;;16.00;72.40;;;;;;4881241;28;89021;-71
2024/01/03 03:28:52;;;;;;;123.32;54.70;;;16.00;72.40;;;;;;4879712;28;89973;-70
2024/01/03 03:31:18;;;;;;;123.97;54.80;;;16.00;72.40;;;;;;4878088;28;89442;-70
2024/01/03 03:33:43;;;;;;;126.18;55.22;;;16.00;72.60;;;;;;4877891;28;91984;-68
2024/01/03 03:36:13;;;;;;;125.45;54.80;;;16.00;72.70;;;;;;4877016;28;90503;-70
2024/01/03 03:38:39;;;;;;;126.18;54.78;;;15.90;72.60;;;;;;4896721;28;89554;-68
2024/01/03 03:41:12;;;;;;;123.05;54.85;;;16.00;72.80;;;;;;4880206;28;89569;-70
2024/01/03 03:43:39;;;;;;;124.90;55.30;;;16.00;72.70;;;;;;4878310;28;91315;-70
2024/01/03 03:46:08;;;;;;;123.60;55.15;;;15.90;72.70;;;;;;4876868;28;90928;-68
2024/01/03 03:48:34;;;;;;;124.72;54.95;;;16.00;72.80;;;;;;4878134;28;89729;-71
2024/01/03 03:51:01;;;;;;;123.47;54.80;;;16.00;72.70;;;;;;4875748;28;90020;-68
2024/01/03 03:53:27;;;;;;;124.40;55.22;;;16.00;72.80;;;;;;4875895;28;90376;-71
2024/01/03 03:55:53;;;;;;;125.35;54.78;;;16.00;72.70;;;;;;4878046;28;89876;-70
2024/01/03 03:58:18;;;;;;;122.80;54.78;;;16.00;72.70;;;;;;4877875;28;91323;-69
2024/01/03 04:00:44;;;;;;;125.07;55.05;;;16.00;72.80;;;;;;4877733;28;89600;-70
2024/01/03 04:03:09;;;;;;;129.18;55.38;;;16.00;72.80;;;;;;4892493;28;92018;-69
2024/01/03 04:05:38;;;;;;;123.03;55.03;;;16.00;72.80;;;;;;4873410;28;91072;-70
2024/01/03 04:08:05;;;;;;;123.55;54.83;;;16.00;72.90;;;;;;4877201;28;90267;-70
2024/01/03 04:10:31;;;;;;;123.35;54.90;;;16.00;72.80;;;;;;4880380;28;90116;-68
2024/01/03 04:12:57;;;;;;;123.78;54.88;;;16.00;72.80;;;;;;4875477;28;91179;-70
2024/01/03 04:15:23;;;;;;;123.30;54.72;;;16.00;72.80;;;;;;4874187;28;89914;-70
2024/01/03 04:17:49;;;;;;;125.38;54.97;;;15.90;72.80;;;;;;4892113;28;91090;-70
2024/01/03 04:20:15;;;;;;;124.45;55.17;;;16.00;72.90;;;;;;4876882;28;90298;-69
2024/01/03 04:22:43;;;;;;;125.18;54.75;;;16.00;72.90;;;;;;4880459;28;91967;-72
2024/01/03 04:25:09;;;;;;;123.43;54.65;;;16.00;72.90;;;;;;4877499;28;91450;-69
2024/01/03 04:27:35;;;;;;;125.32;54.40;;;16.00;73.60;;;;;;4878426;28;89501;-69
2024/01/03 04:30:01;;;;;;;123.95;55.05;;;16.00;72.90;;;;;;4877960;28;89542;-68
2024/01/03 04:32:27;;;;;;;124.22;54.72;;;16.00;73.00;;;;;;4877280;28;91014;-69
2024/01/03 04:34:53;;;;;;;124.97;54.95;;;15.90;72.90;;;;;;4872770;28;90045;-70
2024/01/03 04:37:18;;;;;;;122.95;54.45;;;15.90;72.90;;;;;;4878515;28;89835;-70
2024/01/03 04:39:44;;;;;;;125.85;55.22;;;15.90;72.90;;;;;;4873645;28;88975;-72
2024/01/03 04:42:10;;;;;;;125.53;54.60;;;16.00;73.00;;;;;;4877088;28;90092;-70
2024/01/03 04:44:36;;;;;;;124.07;54.97;;;15.90;72.90;;;;;;4882505;28;90205;-70
2024/01/03 04:47:02;;;;;;;124.55;54.83;;;15.90;73.00;;;;;;4877562;28;91045;-71
2024/01/03 04:49:28;;;;;;;124.10;54.75;;;15.90;73.00;;;;;;4884205;28;90839;-71
2024/01/03 04:51:55;;;;;;;125.85;54.88;;;15.90;73.00;;;;;;4876327;28;90306;-69
2024/01/03 04:54:20;;;;;;;127.50;55.05;;;15.90;72.90;;;;;;4880996;28;90029;-68
2024/01/03 04:56:47;;;;;;;123.95;55.03;;;15.90;73.00;;;;;;4896564;28;90137;-69
2024/01/03 04:59:12;;;;;;;126.00;55.08;;;15.90;72.90;;;;;;4884243;28;89884;-69
2024/01/03 05:01:42;;;;;;;125.68;54.72;;;15.90;72.90;;;;;;4879812;28;89596;-70
2024/01/03 05:04:08;;;;;;;128.23;55.05;;;15.90;72.90;;;;;;4879270;28;90368;-70
2024/01/03 05:06:35;;;;;;;125.78;54.42;;;15.90;73.00;;;;;;4877672;28;90977;-68
2024/01/03 05:09:01;;;;;;;125.30;55.15;;;15.80;72.90;;;;;;4880847;28;89860;-70
2024/01/03 05:11:26;;;;;;;125.55;54.72;;;15.80;73.00;;;;;;4879735;28;91615;-68
2024/01/03 05:13:52;;;;;;;121.93;54.47;;;15.80;72.80;;;;;;4895898;28;91578;-69
2024/01/03 05:16:18;;;;;;;123.53;54.75;;;15.80;72.70;;;;;;4881604;28;90126;-70
2024/01/03 05:18:44;;;;;;;122.07;54.42;;;15.80;73.00;;;;;;4880449;28;91802;-70
2024/01/03 05:21:10;;;;;;;123.93;54.67;;;15.80;73.10;;;;;;4881995;28;90130;-69
2024/01/03 05:23:36;;;;;;;122.88;54.65;;;15.80;73.10;;;;;;4879367;28;90784;-70
2024/01/03 05:26:02;;;;;;;125.03;54.83;;;15.70;73.10;;;;;;4879193;28;90048;-69
2024/01/03 05:28:28;;;;;;;122.07;54.80;;;15.70;73.00;;;;;;4881145;28;88773;-69
2024/01/03 05:30:53;;;;;;;122.63;54.75;;;15.70;73.10;;;;;;4881519;28;89911;-69
2024/01/03 05:33:19;;;;;;;125.60;55.22;;;15.70;73.00;;;;;;4876710;28;90617;-68
2024/01/03 05:35:44;;;;;;;124.78;55.15;;;15.70;73.10;;;;;;4875287;28;91313;-72
2024/01/03 05:38:10;;;;;;;124.07;55.05;;;15.70;73.10;;;;;;4881971;28;89860;-71
2024/01/03 05:40:36;;;;;;;123.25;54.65;;;15.70;73.10;;;;;;4877857;28;90031;-70
2024/01/03 05:43:02;;;;;;;122.47;54.95;;;15.70;73.00;;;;;;4881097;28;89786;-68
2024/01/03 05:45:28;;;;;;;124.15;54.78;;;15.70;73.20;;;;;;4877363;28;91511;-70
2024/01/03 05:47:53;;;;;;;124.68;54.58;;;15.70;73.30;;;;;;4878477;28;93968;-70
2024/01/03 05:50:19;;;;;;;122.55;54.75;;;15.70;73.30;;;;;;4878761;28;91230;-67
2024/01/03 05:52:45;;;;;;;124.47;54.47;;;15.70;73.10;;;;;;4879081;28;89721;-69
2024/01/03 05:55:10;;;;;;;124.82;55.13;;;15.70;73.20;;;;;;4878327;28;90544;-68
2024/01/03 05:57:36;;;;;;;123.63;54.75;;;15.70;73.50;;;;;;4878058;28;90535;-70
2024/01/03 06:00:05;;;;;;;123.10;54.80;;;15.70;73.30;;;;;;4879536;28;92984;-67
2024/01/03 06:02:31;;;;;;;123.93;55.03;;;15.70;73.40;;;;;;4883092;28;93014;-67
2024/01/03 06:04:56;;;;;;;124.97;54.55;;;15.70;74.10;;;;;;4876782;28;90028;-69
2024/01/03 06:07:22;;;;;;;125.82;54.78;;;15.70;73.40;;;;;;4881864;28;89657;-69
2024/01/03 06:09:48;;;;;;;122.15;54.47;;;15.70;73.50;;;;;;4892543;28;90962;-68
2024/01/03 06:12:13;;;;;;;125.00;54.83;;;15.70;73.50;;;;;;4878318;28;90052;-69
2024/01/03 06:14:39;;;;;;;125.65;55.05;;;15.80;73.60;;;;;;4877822;28;91502;-68
2024/01/03 06:17:05;;;;;;;124.68;55.15;;;15.70;73.60;;;;;;4881141;28;88806;-70
2024/01/03 06:19:31;;;;;;;125.15;55.35;;;15.70;73.70;;;;;;4876052;28;91178;-68
2024/01/03 06:21:56;;;;;;;126.22;55.00;;;15.70;73.80;;;;;;4877655;28;89427;-69
2024/01/03 06:24:22;;;;;;;124.30;55.15;;;15.70;73.80;;;;;;4877854;28;92655;-68
2024/01/03 06:26:48;;;;;;;122.63;54.58;;;15.70;73.90;;;;;;4878072;28;90012;-67
2024/01/03 06:29:15;;;;;;;126.72;55.03;;;15.70;74.10;;;;;;4878169;28;89866;-69
2024/01/03 06:31:41;;;;;;;126.05;54.95;;;15.70;74.00;;;;;;4880401;28;89839;-69
2024/01/03 06:34:06;;;;;;;124.75;55.05;;;15.70;74.10;;;;;;4878374;28;89920;-68
2024/01/03 06:36:32;;;;;;;126.45;55.15;;;15.60;74.10;;;;;;4868106;28;90270;-68
2024/01/03 06:38:58;;;;;;;128.13;54.63;;;15.60;74.10;;;;;;4872538;28;90119;-70
2024/01/03 06:41:23;;;;;;;124.88;54.92;;;15.60;74.10;;;;;;4894475;28;89014;-69
2024/01/03 06:43:49;;;;;;;125.20;54.65;;;15.60;74.10;;;;;;4878884;28;91058;-69
2024/01/03 06:46:15;;;;;;;123.78;54.72;;;15.60;74.10;;;;;;4879504;28;89943;-68
2024/01/03 06:48:40;;;;;;;123.50;54.60;;;15.60;73.90;;;;;;4879905;28;90787;-69
2024/01/03 06:51:06;;;;;;;124.25;54.55;;;15.60;74.10;;;;;;4871111;28;91723;-70
2024/01/03 06:53:33;;;;;;;126.15;55.13;;;15.60;74.10;;;;;;4879142;28;89590;-69
2024/01/03 06:55:59;;;;;;;125.13;55.10;;;15.60;74.00;;;;;;4880819;28;91061;-69
2024/01/03 06:58:25;;;;;;;126.10;54.95;;;15.60;74.00;;;;;;4878495;28;89650;-69
2024/01/03 07:00:51;;;;;;;123.43;55.25;;;15.60;74.00;;;;;;4875937;28;90030;-70
2024/01/03 07:03:17;;;;;;;122.30;54.75;;;15.60;74.00;;;;;;4873461;28;89518;-69
2024/01/03 07:05:42;;;;;;;122.38;54.50;;;15.60;74.00;;;;;;4875277;28;89570;-68
2024/01/03 07:08:09;;;;;;;123.55;54.88;;;15.60;73.70;;;;;;4874992;28;89490;-67
2024/01/03 07:10:35;;;;;;;127.05;55.15;;;15.60;73.70;;;;;;4879338;28;89884;-68
2024/01/03 07:13:01;;;;;;;126.78;55.10;;;15.60;73.70;;;;;;4879227;28;92974;-68
2024/01/03 07:15:27;;;;;;;126.57;54.60;;;15.60;73.80;;;;;;4876326;28;91205;-70
2024/01/03 07:17:55;;;;;;;122.40;54.33;;;15.60;73.80;;;;;;4877204;28;90081;-68
2024/01/03 07:20:22;;;;;;;126.53;55.03;;;15.60;73.80;;;;;;4873307;28;91201;-69
2024/01/03 07:22:48;;;;;;;124.82;54.70;;;15.60;73.70;;;;;;4877944;28;89571;-70
2024/01/03 07:25:13;;;;;;;124.10;54.50;;;15.60;73.80;;;;;;4876400;28;89860;-69
2024/01/03 07:27:39;;;;;;;124.85;54.83;;;15.60;73.70;;;;;;4879802;28;89959;-69
2024/01/03 07:30:05;;;;;;;124.38;54.30;;;15.60;73.80;;;;;;4878844;28;89393;-67
2024/01/03 07:32:31;;;;;;;125.93;54.80;;;15.60;73.60;;;;;;4880819;28;90372;-69
2024/01/03 07:34:57;;;;;;;125.57;55.25;;;15.60;73.70;;;;;;4879669;28;89901;-69
2024/01/03 07:37:22;;;;;;;126.03;55.13;;;15.60;73.70;;;;;;4879322;28;91238;-68
2024/01/03 07:39:48;;;;;;;123.68;54.95;;;15.60;73.60;;;;;;4891160;28;90768;-70
2024/01/03 07:42:14;;;;;;;124.70;54.63;;;15.60;73.60;;;;;;4878480;28;90429;-67
2024/01/03 07:44:42;;;;;;;124.88;54.85;;;15.60;73.50;;;;;;4879711;28;89730;-67
2024/01/03 07:47:11;;;;;;;125.25;55.17;;;15.60;73.50;;;;;;4878037;28;90710;-70
2024/01/03 07:49:42;;;;;;;124.90;54.90;;;15.60;73.50;;;;;;4877999;28;89678;-69
2024/01/03 07:52:08;;;;;;;125.22;55.15;;;15.60;73.40;;;;;;4881170;28;91306;-69
2024/01/03 07:54:34;;;;;;;126.57;55.00;;;15.60;73.40;;;;;;4877691;28;88890;-69
2024/01/03 07:57:01;;;;;;;126.78;55.15;;;15.60;73.30;;;;;;4893600;28;92073;-70
2024/01/03 07:59:26;;;;;;;130.40;55.30;;;15.60;73.30;;;;;;4878805;28;90372;-70
2024/01/03 08:01:52;;;;;;;123.03;54.65;;;15.60;73.20;;;;;;4876457;28;90789;-68
2024/01/03 08:04:18;;;;;;;125.15;55.15;;;15.60;73.30;;;;;;4877919;28;89505;-70
2024/01/03 08:06:43;;;;;;;123.47;55.00;;;15.60;73.30;;;;;;4878043;28;89767;-70
2024/01/03 08:09:10;;;;;;;126.45;55.65;;;15.60;73.30;;;;;;4877590;28;89307;-69
2024/01/03 08:11:36;;;;;;;129.88;55.00;;;15.60;73.20;;;;;;4878189;28;90116;-69
2024/01/03 08:14:02;;;;;;;129.05;55.13;;;15.60;73.10;;;;;;4883138;28;89556;-69
2024/01/03 08:16:28;;;;;;;124.38;54.80;;;15.60;73.40;;;;;;4879908;28;89715;-70
2024/01/03 08:18:54;;;;;;;126.57;55.20;;;15.60;73.40;;;;;;4881171;28;90512;-68
2024/01/03 08:21:20;;;;;;;125.35;54.85;;;15.60;73.40;;;;;;4879618;28;90844;-68
2024/01/03 08:23:46;;;;;;;124.55;54.92;;;15.60;73.40;;;;;;4881756;28;89986;-68
2024/01/03 08:26:12;;;;;;;125.13;54.97;;;15.60;73.20;;;;;;4881341;28;92534;-69
2024/01/03 08:28:42;;;;;;;129.70;55.17;;;15.60;73.40;;;;;;4881896;28;89881;-69
2024/01/03 08:31:15;;;;;;;127.18;55.38;;;15.60;73.40;;;;;;4875809;28;90118;-69
2024/01/03 08:33:41;;;;;;;125.20;55.20;;;15.60;73.30;;;;;;4879946;28;89546;-68
2024/01/03 08:36:14;;;;;;;125.80;54.83;;;15.60;73.30;;;;;;4879005;28;90063;-68
2024/01/03 08:38:40;;;;;;;126.07;54.85;;;15.60;73.40;;;;;;4896065;28;91127;-69
2024/01/03 08:41:17;;;;;;;126.28;54.65;;;15.60;73.50;;;;;;4878002;28;89894;-69
2024/01/03 08:43:43;;;;;;;123.38;54.80;;;15.60;73.50;;;;;;4876160;28;89091;-68
2024/01/03 08:46:09;;;;;;;127.00;55.47;;;15.60;73.50;;;;;;4876846;28;89609;-69
2024/01/03 08:48:36;;;;;;;124.43;55.20;;;15.60;73.40;;;;;;4882075;28;90343;-68
2024/01/03 08:51:02;;;;;;;125.40;54.78;;;15.60;73.50;;;;;;4877911;28;91098;-69
2024/01/03 08:53:27;;;;;;;124.70;54.85;;;15.60;73.50;;;;;;4884035;28;89386;-70
2024/01/03 08:55:53;;;;;;;125.35;54.75;;;15.60;73.40;;;;;;4876384;28;91436;-69
2024/01/03 08:58:19;;;;;;;127.72;55.05;;;15.60;73.40;;;;;;4881392;28;89827;-68
2024/01/03 09:00:45;;;;;;;124.18;54.78;;;15.60;73.40;;;;;;4872854;28;91098;-68
2024/01/03 09:03:11;;;;;;;124.30;54.95;;;15.60;73.40;;;;;;4875377;28;90289;-68
2024/01/03 09:05:37;;;;;;;124.45;54.83;;;15.60;73.50;;;;;;4872877;28;90266;-70
2024/01/03 09:08:03;;;;;;;125.00;54.97;;;15.70;73.30;;;;;;4879427;28;89108;-69
2024/01/03 09:10:29;;;;;;;122.80;54.97;;;15.70;73.20;;;;;;4877253;28;90908;-73
2024/01/03 09:12:54;;;;;;;123.80;54.63;;;15.70;73.30;;;;;;4878149;28;90586;-74
2024/01/03 09:15:20;;;;;;;125.57;54.55;;;15.70;73.30;;;;;;4877705;28;90972;-76
2024/01/03 09:17:46;;;;;;;126.97;55.10;;;15.70;73.30;;;;;;4881099;28;90860;-75
2024/01/03 09:20:12;;;;;;;124.55;55.08;;;15.70;73.40;;;;;;4876668;28;89798;-70
2024/01/03 09:22:38;;;;;;;129.60;54.95;;;15.70;73.50;;;;;;4876553;28;90508;-75
2024/01/03 09:25:04;;;;;;;125.78;54.70;;;15.70;73.50;;;;;;4878862;28;91061;-70
2024/01/03 09:27:30;;;;;;;123.38;54.75;;;15.70;73.40;;;;;;4884567;28;91081;-72
2024/01/03 09:29:56;;;;;;;123.72;54.97;;;15.70;73.30;;;;;;4878266;28;90125;-69
2024/01/03 09:32:21;;;;;;;125.18;54.70;;;15.70;73.40;;;;;;4883296;28;89356;-70
2024/01/03 09:34:47;;;;;;;125.95;54.88;;;15.70;73.40;;;;;;4879830;28;90534;-68
2024/01/03 09:37:14;;;;;;;123.40;55.05;;;15.70;73.40;;;;;;4878243;28;90864;-68
2024/01/03 09:39:40;;;;;;;125.82;55.20;;;15.70;74.20;;;;;;4879317;28;91947;-68
2024/01/03 09:42:06;;;;;;;124.40;54.95;;;15.70;73.40;;;;;;4882310;28;89638;-69
2024/01/03 09:44:33;;;;;;;123.45;55.08;;;15.70;73.30;;;;;;4875114;28;90466;-66
2024/01/03 09:46:59;;;;;;;129.52;55.35;;;15.70;73.30;;;;;;4881743;28;90036;-70
2024/01/03 09:49:24;;;;;;;124.75;55.08;;;15.70;73.20;;;;;;4877765;28;89686;-69
2024/01/03 09:51:52;;;;;;;123.32;54.97;;;15.70;73.20;;;;;;4881607;28;89984;-69
2024/01/03 09:54:19;;;;;;;123.82;55.00;;;15.70;73.10;;;;;;4883337;28;90062;-69
2024/01/03 09:56:47;;;;;;;126.57;55.15;;;15.70;73.00;;;;;;4880871;28;93858;-69
2024/01/03 09:59:13;;;;;;;124.05;54.72;;;15.70;73.00;;;;;;4878293;28;89993;-68
2024/01/03 10:01:39;;;;;;;128.10;55.40;;;15.80;73.10;;;;;;4877603;28;90186;-68
2024/01/03 10:04:08;;;;;;;124.57;56.13;;;15.80;73.70;;;;;;4905717;23;91943;-35
2024/01/03 10:06:53;;;;;;;124.50;55.72;;;15.80;73.00;;;;;;4879148;28;91079;-33
2024/01/03 10:09:19;;;;;;;127.82;56.15;;;15.80;73.10;;;;;;4879975;28;89903;-33
2024/01/03 10:11:46;;;;;;;127.43;56.03;;;15.90;73.40;;;;;;4877228;28;90214;-32
2024/01/03 10:14:24;;;;;;;125.30;55.25;;;16.00;73.60;;;;;;4881556;28;89589;-34
2024/01/03 10:16:50;;;;;;;126.47;55.72;;;16.00;73.50;;;;;;4880122;28;89860;-34
2024/01/03 10:19:18;;;;;;;128.93;55.80;;;16.10;73.50;;;;;;4882699;28;89998;-33
2024/01/03 10:21:48;;;;;;;127.30;55.53;;;16.10;73.30;;;;;;4872945;28;93420;-34
2024/01/03 10:24:15;;;;;;;124.70;55.93;;;16.10;73.10;;;;;;4879257;28;90125;-33
2024/01/03 10:26:40;;;;;;;126.10;55.75;;;16.20;73.10;;;;;;4879118;28;90155;-35
2024/01/03 10:29:17;;;;;;;134.40;55.75;;;16.20;72.50;;;;;;4882855;28;91201;-33
2024/01/03 10:31:43;;;;;;;126.03;55.08;;;16.30;73.00;;;;;;4881958;28;94308;-34
2024/01/03 10:34:19;;;;;;;128.93;55.53;;;16.30;72.80;;;;;;4880959;28;89669;-34
2024/01/03 10:36:46;;;;;;;127.35;55.50;;;16.30;72.70;;;;;;4897288;28;91205;-34
2024/01/03 10:39:16;;;;;;;129.77;56.08;;;16.30;72.80;;;;;;4881920;28;90249;-33
2024/01/03 10:41:46;;;;;;;127.82;56.17;;;16.30;72.70;;;;;;4879157;28;90122;-34
2024/01/03 10:44:18;;;;;;;130.65;56.28;;;16.40;72.90;;;;;;4896404;28;91204;-34
2024/01/03 10:46:45;;;;;;;128.38;55.60;;;16.40;72.50;;;;;;4893261;23;89389;-72
2024/01/03 10:49:11;;;;;;;128.60;55.95;;;16.50;72.50;;;;;;4889033;23;90134;-35
2024/01/03 10:51:41;;;;;;;137.90;56.55;;;16.50;72.50;;;;;;4877963;28;90164;-34
2024/01/03 10:54:10;;;;;;;134.35;55.92;;;16.50;72.60;;;;;;4879877;28;90839;-34
2024/01/03 10:56:36;;;;;;;133.40;56.08;;;16.60;72.60;;;;;;4894739;23;90699;-66
2024/01/03 10:59:07;;;;;;;137.30;56.72;;;16.50;72.60;;;;;;4872085;28;89947;-68
2024/01/03 11:01:44;;;;;;;136.95;55.95;;;16.50;73.00;;;;;;4874291;28;89814;-67
2024/01/03 11:04:16;;;;;;;133.35;56.45;;;16.50;73.00;;;;;;4871969;28;91630;-66
2024/01/03 11:06:44;;;;;;;135.52;56.67;;;16.50;73.30;;;;;;4870315;28;90738;-67
2024/01/03 11:09:10;;;;;;;145.77;56.92;;;16.50;72.00;;;;;;4889943;28;90650;-72
2024/01/03 11:11:37;;;;;;;141.73;57.30;;;16.50;72.40;;;;;;4872793;28;89439;-68
2024/01/03 11:14:18;;;;;;;141.30;56.97;;;16.50;72.60;;;;;;4868592;28;92259;-70
2024/01/03 11:16:44;;;;;;;144.52;57.08;;;16.50;73.00;;;;;;4873121;28;90351;-71
2024/01/03 11:19:10;;;;;;;138.18;56.47;;;16.60;73.90;;;;;;4878400;28;93113;-68
2024/01/03 11:21:37;;;;;;;141.65;57.20;;;16.50;74.00;;;;;;4865143;28;90062;-70
2024/01/03 11:24:24;;;;;;;138.20;57.38;;;16.60;75.00;;;;;;4871249;28;89750;-73
2024/01/03 11:27:13;;;;;;;137.73;57.10;;;16.60;75.20;;;;;;4866027;28;91157;-69
2024/01/03 11:29:44;;;;;;;129.20;56.72;;;16.60;74.90;;;;;;4876268;28;89682;-69
2024/01/03 11:32:12;;;;;;;;;;;16.60;75.00;;;;;;4870857;28;90604;-73
2024/01/03 11:34:47;;;;;;;135.77;57.20;;;16.60;75.80;;;;;;4870709;28;90344;-72
2024/01/03 11:37:19;;;;;;;134.32;56.42;;;16.60;75.40;;;;;;4873095;28;89258;-72
2024/01/03 11:39:52;;;;;;;133.18;56.63;;;16.60;75.30;;;;;;4867640;28;93058;-70
2024/01/03 11:42:31;;;;;;;135.95;57.42;;;16.60;75.40;;;;;;4873869;28;90127;-74
2024/01/03 11:45:13;;;;;;;138.18;57.38;;;16.70;76.00;;;;;;4870785;28;90714;-74
2024/01/03 11:47:44;;;;;;;135.00;56.50;;;16.70;75.90;;;;;;4875106;28;89773;-72
2024/01/03 11:50:15;;;;;;;131.80;57.07;;;16.80;75.60;;;;;;4877947;28;89564;-74
2024/01/03 11:52:43;;;;;;;137.65;57.10;;;16.90;75.50;;;;;;4873405;28;94092;-70
2024/01/03 11:55:11;;;;;;;140.55;57.53;;;16.90;75.10;;;;;;4877205;28;90630;-69
2024/01/03 11:57:41;;;;;;;139.20;57.55;;;16.90;75.00;;;;;;4879669;28;89522;-68
2024/01/03 12:00:09;;;;;;;138.20;56.53;;;16.80;74.70;;;;;;4877295;28;89809;-71
2024/01/03 12:02:35;;;;;;;143.95;57.33;;;16.80;75.00;;;;;;4867885;28;89047;-69
2024/01/03 12:05:02;;;;;;;135.32;56.65;;;16.90;75.20;;;;;;4869882;28;90943;-70
2024/01/03 12:07:29;;;;;;;134.68;56.55;;;16.90;75.10;;;;;;4873472;28;89324;-69
2024/01/03 12:09:56;;;;;;;129.75;56.60;;;16.90;75.10;;;;;;4872617;28;91511;-69
2024/01/03 12:12:22;;;;;;;133.18;56.40;;;16.80;75.00;;;;;;4875457;28;91980;-68
2024/01/03 12:14:54;;;;;;;136.65;57.28;;;16.90;75.10;;;;;;4867720;28;90055;-73
2024/01/03 12:17:27;;;;;;;135.80;56.78;;;16.90;74.80;;;;;;4868298;28;90344;-76